Time;durP1;ratioP1;P1;durP2;ratioP2;P2;SDS_P1;SDS_P2;PMS_P1;PMS_P2;Temp;Humidity;BMP_temperature;BMP_pressure;BME280_temperature;BME280_humidity;BME280_pressure;Samples;Min_cycle;Max_cycle;Signal;HPM_P1;HPM_P2
2021/06/06 00:00:27;;;;;;;1.07;0.67;;;;;;;20.79;46.58;100953.03;5074708;28;20025;-32
2021/06/06 00:02:54;;;;;;;0.45;0.40;;;;;;;20.80;46.53;100954.81;5074499;28;20020;-32
2021/06/06 00:05:21;;;;;;;15.13;0.32;;;;;;;20.78;46.57;100936.22;5075130;28;20450;-30
2021/06/06 00:07:47;;;;;;;8.63;1.02;;;;;;;20.74;46.71;100926.59;5074612;28;20043;-31
2021/06/06 00:10:13;;;;;;;2.40;0.33;;;;;;;20.76;46.64;100919.47;5075074;28;20339;-31
2021/06/06 00:12:39;;;;;;;9.73;0.40;;;;;;;20.77;46.72;100920.34;5073742;28;20431;-31
2021/06/06 00:15:12;;;;;;;2.20;1.30;;;;;;;20.78;46.73;100925.63;5074754;28;20264;-31
2021/06/06 00:17:39;;;;;;;1.17;0.65;;;;;;;20.82;46.77;100924.63;5074602;28;20119;-31
2021/06/06 00:20:07;;;;;;;1.00;0.67;;;;;;;20.77;46.74;100929.19;5074813;28;20030;-32
2021/06/06 00:22:33;;;;;;;1.00;0.55;;;;;;;20.83;46.70;100934.34;5074814;28;20099;-31
2021/06/06 00:24:59;;;;;;;1.63;0.13;;;;;;;20.78;47.01;100941.53;5074735;28;20470;-32
2021/06/06 00:27:26;;;;;;;0.57;0.17;;;;;;;20.87;46.74;100933.34;5074537;28;20020;-31
2021/06/06 00:29:52;;;;;;;0.70;0.70;;;;;;;20.82;46.94;100948.53;5074667;28;20347;-31
2021/06/06 00:32:19;;;;;;;0.23;0.20;;;;;;;20.82;46.91;100948.53;5074632;28;20443;-31
2021/06/06 00:34:45;;;;;;;;;;;;;;;20.85;46.90;100958.22;5075092;28;20032;-31
2021/06/06 00:37:11;;;;;;;0.32;0.32;;;;;;;20.79;46.94;100964.53;5074351;28;20006;-31
2021/06/06 00:39:37;;;;;;;1.95;0.75;;;;;;;20.76;47.24;100958.44;5074635;28;20462;-31
2021/06/06 00:42:04;;;;;;;0.15;0.15;;;;;;;20.81;47.10;100959.19;5074504;28;20516;-32
2021/06/06 00:44:30;;;;;;;0.68;0.40;;;;;;;20.80;47.11;100954.81;5074604;28;20462;-31
2021/06/06 00:46:56;;;;;;;0.10;0.10;;;;;;;20.82;47.16;100959.16;5074088;28;20040;-32
2021/06/06 00:49:23;;;;;;;3.72;1.48;;;;;;;20.87;47.18;100953.72;5074459;28;20264;-32
2021/06/06 00:51:53;;;;;;;3.13;0.57;;;;;;;20.90;47.03;100948.38;5073578;28;20024;-31
2021/06/06 00:54:25;;;;;;;1.25;0.55;;;;;;;20.90;47.07;100945.72;5074618;28;20035;-32
2021/06/06 00:56:54;;;;;;;2.92;1.38;;;;;;;20.90;47.05;100935.97;5074253;28;20401;-31
2021/06/06 00:59:22;;;;;;;5.03;0.85;;;;;;;21.00;46.89;100938.41;5073537;28;20021;-31
2021/06/06 01:01:48;;;;;;;5.20;2.08;;;;;;;21.04;46.71;100935.63;5056854;28;20035;-31
2021/06/06 01:04:16;;;;;;;1.20;0.50;;;;;;;21.11;46.68;100923.06;5074317;28;20332;-31
2021/06/06 01:06:47;;;;;;;3.33;1.10;;;;;;;21.11;46.70;100925.72;5073697;28;20029;-31
2021/06/06 01:09:14;;;;;;;8.82;0.20;;;;;;;21.11;46.62;100920.41;5074266;28;20024;-31
2021/06/06 01:11:52;;;;;;;11.50;1.38;;;;;;;21.14;46.66;100912.38;5073365;28;20035;-31
2021/06/06 01:14:49;;;;;;;3.40;0.43;;;;;;;21.12;46.66;100923.00;5074328;28;20025;-31
2021/06/06 01:17:33;;;;;;;10.27;2.13;;;;;;;21.13;46.69;100916.81;5059384;28;20035;-31
2021/06/06 01:20:14;;;;;;;4.35;0.75;;;;;;;21.15;46.70;100914.09;5058242;28;20028;-30
2021/06/06 01:23:07;;;;;;;1.50;1.05;;;;;;;21.14;46.69;100912.38;5069750;28;20082;-31
2021/06/06 01:25:42;;;;;;;12.30;2.67;;;;;;;21.12;46.71;100904.41;5073241;28;20050;-33
2021/06/06 01:28:14;;;;;;;2.50;1.65;;;;;;;21.01;46.95;100903.81;5073024;28;20020;-32
2021/06/06 01:30:45;;;;;;;5.72;0.65;;;;;;;20.94;47.20;100897.81;5073232;28;20028;-31
2021/06/06 01:33:18;;;;;;;1.80;0.25;;;;;;;20.94;47.07;100899.59;5056946;28;20024;-30
2021/06/06 01:35:50;;;;;;;10.95;1.02;;;;;;;20.90;47.30;100895.25;5056566;28;20031;-31
2021/06/06 01:38:20;;;;;;;2.00;1.02;;;;;;;20.89;47.25;100896.19;5056946;28;20024;-31
2021/06/06 01:40:47;;;;;;;2.67;0.63;;;;;;;20.88;47.36;100889.97;5073119;28;20027;-31
2021/06/06 01:43:16;;;;;;;4.60;1.37;;;;;;;20.87;47.46;100890.88;5073135;28;20548;-31
2021/06/06 01:45:48;;;;;;;2.00;0.70;;;;;;;20.92;47.45;100893.41;5073145;28;20313;-31
2021/06/06 01:48:14;;;;;;;0.28;0.28;;;;;;;20.90;47.39;100887.28;5056179;28;20077;-31
2021/06/06 01:50:54;;;;;;;1.33;0.47;;;;;;;20.93;47.25;100887.19;5072856;28;20024;-33
2021/06/06 01:53:20;;;;;;;11.20;2.40;;;;;;;20.90;47.13;100888.16;5072100;28;20028;-31
2021/06/06 01:55:49;;;;;;;2.50;0.83;;;;;;;20.90;47.32;100881.97;5073897;28;20020;-32
2021/06/06 01:58:15;;;;;;;11.15;1.17;;;;;;;20.86;47.47;100881.16;5072840;28;20012;-31
2021/06/06 02:00:49;;;;;;;15.45;2.92;;;;;;;20.89;47.12;100889.06;5056229;28;20361;-31
2021/06/06 02:03:15;;;;;;;2.58;1.33;;;;;;;20.89;47.12;100893.50;5076645;28;20035;-30
2021/06/06 02:05:41;;;;;;;7.50;1.63;;;;;;;20.90;46.94;100887.28;5076706;28;20029;-31
2021/06/06 02:08:13;;;;;;;4.72;1.25;;;;;;;20.88;47.26;100891.75;5077117;28;20031;-31
2021/06/06 02:10:44;;;;;;;3.63;1.23;;;;;;;20.86;47.25;100888.28;5076576;28;20513;-31
2021/06/06 02:13:19;;;;;;;1.42;0.85;;;;;;;20.88;47.01;100899.72;5076539;28;20120;-31
2021/06/06 02:15:46;;;;;;;3.47;1.10;;;;;;;20.83;47.02;100894.50;5076522;28;20470;-32
2021/06/06 02:18:12;;;;;;;9.43;1.50;;;;;;;20.82;46.86;100892.78;5076056;28;20021;-31
2021/06/06 02:20:41;;;;;;;1.57;1.33;;;;;;;20.85;47.25;100889.19;5077517;28;20028;-31
2021/06/06 02:23:08;;;;;;;0.40;0.32;;;;;;;20.88;47.03;100891.75;5076684;28;20028;-31
2021/06/06 02:25:35;;;;;;;7.93;1.27;;;;;;;20.88;46.77;100894.41;5077067;28;20031;-32
2021/06/06 02:28:07;;;;;;;1.27;0.80;;;;;;;20.87;46.71;100884.69;5075794;28;20040;-32
2021/06/06 02:31:06;;;;;;;7.82;1.08;;;;;;;20.86;46.71;100888.28;5076137;28;20086;-32
2021/06/06 02:34:18;;;;;;;15.63;0.98;;;;;;;20.84;46.82;100885.66;5064307;28;20117;-31
2021/06/06 02:37:16;;;;;;;7.45;1.40;;;;;;;20.77;46.82;100885.84;5076607;28;20526;-32
2021/06/06 02:39:45;;;;;;;3.83;0.80;;;;;;;20.70;46.79;100886.00;5075367;28;20036;-31
2021/06/06 02:42:14;;;;;;;7.15;1.02;;;;;;;20.74;46.81;100881.47;5059574;28;20077;-31
2021/06/06 02:44:46;;;;;;;3.67;1.48;;;;;;;20.77;47.15;100885.84;5076854;28;20028;-32
2021/06/06 02:47:13;;;;;;;2.13;0.47;;;;;;;20.75;46.53;100882.31;5075841;28;20028;-31
2021/06/06 02:49:40;;;;;;;1.33;0.60;;;;;;;20.73;47.15;100887.69;5075415;28;20478;-31
2021/06/06 02:52:12;;;;;;;3.95;0.95;;;;;;;20.77;46.67;100896.44;5075654;28;20060;-33
2021/06/06 02:54:59;;;;;;;1.30;1.05;;;;;;;20.73;46.63;100900.09;5075824;28;20028;-31
2021/06/06 02:57:25;;;;;;;0.43;0.43;;;;;;;20.67;47.12;100895.81;5075564;28;20021;-33
2021/06/06 03:00:11;;;;;;;9.52;1.00;;;;;;;20.68;46.77;100895.75;5075350;28;20043;-30
2021/06/06 03:02:40;;;;;;;3.67;1.05;;;;;;;20.62;46.73;100882.63;5076132;28;20024;-31
2021/06/06 03:05:07;;;;;;;12.55;2.08;;;;;;;20.66;46.91;100899.38;5075520;28;20028;-30
2021/06/06 03:07:36;;;;;;;;;;;;;;;20.62;46.62;100893.25;5075817;28;20025;-31
2021/06/06 03:10:04;;;;;;;23.75;0.65;;;;;;;20.64;46.61;100886.13;5075125;28;19916;-32
2021/06/06 03:12:30;;;;;;;0.43;0.38;;;;;;;20.67;46.47;100886.06;5076213;28;20028;-30
2021/06/06 03:14:56;;;;;;;4.25;0.32;;;;;;;20.64;46.38;100890.56;5074574;28;20044;-31
2021/06/06 03:17:34;;;;;;;1.97;0.40;;;;;;;20.65;46.52;100890.53;5075260;28;20081;-31
2021/06/06 03:20:01;;;;;;;1.08;0.63;;;;;;;20.59;46.57;100893.31;5075890;28;20099;-31
2021/06/06 03:22:32;;;;;;;2.47;1.30;;;;;;;20.55;46.42;100890.75;5066147;28;20451;-31
2021/06/06 03:25:05;;;;;;;2.70;0.60;;;;;;;20.58;46.39;100891.56;5082125;28;20073;-31
2021/06/06 03:27:38;;;;;;;4.00;1.13;;;;;;;20.54;46.68;100894.34;5096201;28;20034;-30
2021/06/06 03:30:28;;;;;;;9.77;1.30;;;;;;;20.49;46.77;100888.25;5094980;28;20055;-31
2021/06/06 03:32:54;;;;;;;3.30;1.30;;;;;;;20.51;46.13;100892.63;5096010;28;20411;-33
2021/06/06 03:35:20;;;;;;;3.53;1.50;;;;;;;20.58;45.90;100896.88;5078391;28;20408;-31
2021/06/06 03:37:47;;;;;;;2.13;1.37;;;;;;;20.50;46.00;100895.31;5095888;28;20020;-31
2021/06/06 03:40:13;;;;;;;5.03;1.10;;;;;;;20.50;46.21;100887.34;5095839;28;20020;-31
2021/06/06 03:42:40;;;;;;;8.00;1.33;;;;;;;20.48;46.02;100898.00;5096171;28;20115;-31
2021/06/06 03:45:07;;;;;;;0.20;0.13;;;;;;;20.47;46.30;100896.25;5095861;28;20036;-30
2021/06/06 03:47:33;;;;;;;4.97;1.10;;;;;;;20.48;46.55;100897.13;5091154;28;20028;-31
2021/06/06 03:50:00;;;;;;;4.90;2.13;;;;;;;20.55;46.10;100896.06;5075089;28;20028;-32
2021/06/06 03:52:26;;;;;;;10.80;0.43;;;;;;;20.47;46.16;100896.25;5061926;28;20481;-32
2021/06/06 03:54:53;;;;;;;16.77;1.08;;;;;;;20.43;46.40;100895.41;5061109;28;20339;-32
2021/06/06 03:57:21;;;;;;;7.50;1.52;;;;;;;20.45;46.36;100898.03;5073210;28;20028;-31
2021/06/06 03:59:47;;;;;;;0.70;0.70;;;;;;;20.43;46.42;100895.41;5073956;28;20040;-30
2021/06/06 04:02:13;;;;;;;0.30;0.30;;;;;;;20.40;45.77;100886.66;5075203;28;20467;-33
2021/06/06 04:04:39;;;;;;;13.73;1.67;;;;;;;20.40;45.91;100890.16;5075026;28;20473;-32
2021/06/06 04:07:05;;;;;;;7.68;1.10;;;;;;;20.44;45.89;100893.63;5074932;28;20389;-31
2021/06/06 04:09:31;;;;;;;9.93;1.33;;;;;;;20.43;45.81;100900.72;5068258;28;20027;-31
2021/06/06 04:11:58;;;;;;;6.15;1.17;;;;;;;20.41;46.07;100899.00;5054441;28;20040;-34
2021/06/06 04:14:24;;;;;;;1.70;0.73;;;;;;;20.36;46.34;100904.41;5058109;28;20020;-31
2021/06/06 04:16:50;;;;;;;6.17;1.03;;;;;;;20.37;46.21;100900.88;5074733;28;20035;-31
2021/06/06 04:19:16;;;;;;;1.13;1.00;;;;;;;20.35;46.11;100902.66;5074497;28;20071;-36
2021/06/06 04:21:42;;;;;;;16.92;2.10;;;;;;;20.34;46.30;100894.75;5074758;28;20025;-33
2021/06/06 04:24:08;;;;;;;1.47;1.03;;;;;;;20.34;45.81;100894.75;5074075;28;20028;-32
2021/06/06 04:26:35;;;;;;;6.93;1.03;;;;;;;20.31;46.17;100900.97;5073031;28;20021;-31
2021/06/06 04:29:01;;;;;;;7.90;1.73;;;;;;;20.29;45.79;100902.81;5074143;28;20103;-35
2021/06/06 04:31:27;;;;;;;6.57;1.27;;;;;;;20.31;45.87;100910.72;5074652;28;20455;-32
2021/06/06 04:33:53;;;;;;;8.00;1.58;;;;;;;20.31;45.82;100914.25;5069970;28;20024;-32
2021/06/06 04:36:20;;;;;;;3.40;0.98;;;;;;;20.30;45.53;100924.91;5054495;28;20027;-31
2021/06/06 04:38:46;;;;;;;0.87;0.40;;;;;;;20.32;46.02;100913.38;5053824;28;20059;-31
2021/06/06 04:41:13;;;;;;;0.95;0.82;;;;;;;20.32;46.01;100928.38;5054274;28;20349;-30
2021/06/06 04:43:39;;;;;;;6.03;2.08;;;;;;;20.25;46.08;100921.47;5053648;28;20039;-30
2021/06/06 04:46:05;;;;;;;3.92;2.33;;;;;;;20.24;46.03;100925.91;5054522;28;20044;-31
2021/06/06 04:48:36;;;;;;;5.60;1.20;;;;;;;20.30;45.79;100924.91;5054311;28;20033;-31
2021/06/06 04:51:04;;;;;;;7.97;0.95;;;;;;;20.20;45.92;100919.78;5054389;28;20375;-31
2021/06/06 04:53:31;;;;;;;3.40;0.98;;;;;;;20.25;45.93;100927.66;5054364;28;20055;-32
2021/06/06 04:55:58;;;;;;;5.93;0.57;;;;;;;20.16;46.00;100939.31;5054495;28;20021;-31
2021/06/06 04:58:25;;;;;;;15.32;2.30;;;;;;;20.25;45.61;100940.03;5062076;28;20013;-31
2021/06/06 05:00:51;;;;;;;1.42;1.05;;;;;;;20.25;45.80;100940.03;5074252;28;20024;-31
2021/06/06 05:03:18;;;;;;;1.10;0.68;;;;;;;20.24;45.87;100939.19;5071438;28;20366;-31
2021/06/06 05:05:44;;;;;;;10.82;1.27;;;;;;;20.20;45.70;100938.34;5074344;28;20025;-32
2021/06/06 05:08:11;;;;;;;1.10;0.93;;;;;;;20.18;45.82;100948.13;5074293;28;20519;-32
2021/06/06 05:10:39;;;;;;;23.10;1.25;;;;;;;20.12;45.78;100934.97;5074117;28;20261;-31
2021/06/06 05:13:05;;;;;;;5.05;0.43;;;;;;;20.13;46.00;100933.19;5074116;28;20351;-32
2021/06/06 05:15:31;;;;;;;5.63;1.13;;;;;;;20.14;45.91;100950.88;5074306;28;20016;-31
2021/06/06 05:17:58;;;;;;;5.90;1.40;;;;;;;20.14;45.87;100949.09;5074088;28;20047;-31
2021/06/06 05:20:26;;;;;;;6.90;0.90;;;;;;;20.15;45.68;100957.94;5063665;28;20032;-30
2021/06/06 05:22:52;;;;;;;4.15;2.05;;;;;;;20.09;45.99;100955.41;5063511;28;20089;-32
2021/06/06 05:25:19;;;;;;;4.03;1.35;;;;;;;20.09;45.57;100950.97;5074098;28;20477;-33
2021/06/06 05:27:45;;;;;;;7.50;1.98;;;;;;;20.08;45.65;100951.00;5074008;28;20039;-31
2021/06/06 05:30:14;;;;;;;15.03;1.20;;;;;;;20.10;45.57;100944.75;5074391;28;20031;-31
2021/06/06 05:32:40;;;;;;;3.97;1.45;;;;;;;20.13;45.47;100947.38;5074215;28;20028;-31
2021/06/06 05:35:07;;;;;;;2.42;1.25;;;;;;;20.09;45.78;100945.66;5074095;28;20557;-33
2021/06/06 05:37:33;;;;;;;;;;;;;;;20.09;45.78;100942.16;5076005;28;20123;-32
2021/06/06 05:39:59;;;;;;;5.93;2.35;;;;;;;20.07;45.88;100943.94;5077824;28;20023;-31
2021/06/06 05:42:25;;;;;;;7.17;1.53;;;;;;;20.06;45.68;100947.50;5077600;28;20016;-31
2021/06/06 05:44:51;;;;;;;2.53;0.83;;;;;;;20.04;45.86;100944.03;5077829;28;20454;-32
2021/06/06 05:47:17;;;;;;;2.63;0.75;;;;;;;20.08;45.76;100937.72;5077559;28;20446;-32
2021/06/06 05:49:43;;;;;;;0.45;0.45;;;;;;;20.03;45.85;100937.81;5077467;28;20040;-31
2021/06/06 05:52:10;;;;;;;2.63;0.50;;;;;;;19.98;45.71;100930.88;5077443;28;20093;-31
2021/06/06 05:54:36;;;;;;;3.10;1.33;;;;;;;20.03;45.57;100931.66;5077781;28;20024;-32
2021/06/06 05:57:02;;;;;;;0.57;0.40;;;;;;;20.00;45.57;100929.94;5076243;28;20429;-31
2021/06/06 05:59:29;;;;;;;3.28;1.83;;;;;;;20.00;45.75;100937.03;5077497;28;20450;-31
2021/06/06 06:01:55;;;;;;;1.20;0.83;;;;;;;19.98;46.00;100936.16;5076334;28;20043;-33
2021/06/06 06:04:21;;;;;;;4.07;1.43;;;;;;;19.98;45.94;100936.16;5077356;28;20035;-31
2021/06/06 06:06:47;;;;;;;4.05;0.80;;;;;;;19.98;45.97;100939.69;5077381;28;20366;-31
2021/06/06 06:09:13;;;;;;;0.67;0.60;;;;;;;19.99;45.85;100930.84;5077330;28;20374;-31
2021/06/06 06:11:39;;;;;;;12.70;1.60;;;;;;;19.92;45.89;100934.53;5076930;28;20082;-33
2021/06/06 06:14:06;;;;;;;3.40;1.20;;;;;;;19.94;45.84;100941.56;5077187;28;20032;-32
2021/06/06 06:16:33;;;;;;;6.22;2.33;;;;;;;19.95;45.84;100939.78;5077190;28;20359;-31
2021/06/06 06:19:01;;;;;;;6.80;2.00;;;;;;;19.91;45.68;100932.78;5076882;28;20446;-31
2021/06/06 06:21:28;;;;;;;6.03;0.70;;;;;;;19.92;45.86;100939.81;5076871;28;20047;-32
2021/06/06 06:23:54;;;;;;;0.93;0.68;;;;;;;19.89;45.84;100934.56;5076917;28;20447;-32
2021/06/06 06:26:20;;;;;;;6.57;1.37;;;;;;;19.90;45.80;100931.91;5092799;28;20454;-34
2021/06/06 06:28:47;;;;;;;1.02;0.50;;;;;;;19.93;45.66;100929.16;5077040;28;20039;-30
2021/06/06 06:31:14;;;;;;;4.70;0.70;;;;;;;19.86;46.00;100935.53;5076935;28;20090;-31
2021/06/06 06:33:41;;;;;;;4.70;0.45;;;;;;;19.88;45.93;100930.19;5076702;28;20261;-31
2021/06/06 06:36:07;;;;;;;;;;;;;;;19.90;45.88;100928.38;5077079;28;20081;-34
2021/06/06 06:38:34;;;;;;;7.68;0.65;;;;;;;19.82;45.80;100931.16;5076769;28;20366;-32
2021/06/06 06:41:00;;;;;;;1.50;1.02;;;;;;;19.83;46.05;100924.09;5077197;28;20039;-31
2021/06/06 06:43:27;;;;;;;5.63;0.73;;;;;;;19.81;45.90;100936.50;5075779;28;20032;-31
2021/06/06 06:45:54;;;;;;;2.73;0.60;;;;;;;19.81;45.95;100933.88;5075229;28;20028;-31
2021/06/06 06:48:26;;;;;;;10.45;1.67;;;;;;;19.73;46.01;100925.19;5075406;28;20362;-31
2021/06/06 06:50:52;;;;;;;3.30;0.68;;;;;;;19.81;45.66;100929.44;5075904;28;20024;-31
2021/06/06 06:53:21;;;;;;;0.43;0.43;;;;;;;19.86;45.71;100930.22;5076487;28;20102;-32
2021/06/06 06:55:48;;;;;;;4.22;1.42;;;;;;;19.85;45.70;100927.59;5076514;28;20454;-32
2021/06/06 06:58:14;;;;;;;0.43;0.30;;;;;;;19.80;45.88;100927.69;5076702;28;20017;-31
2021/06/06 07:00:42;;;;;;;4.47;1.50;;;;;;;19.80;45.80;100930.34;5076512;28;20265;-31
2021/06/06 07:03:09;;;;;;;2.70;0.82;;;;;;;19.79;45.78;100925.03;5065441;28;20029;-31
2021/06/06 07:05:35;;;;;;;;;;;;;;;19.77;45.93;100918.91;5055884;28;20103;-32
2021/06/06 07:08:02;;;;;;;7.50;1.50;;;;;;;19.81;45.84;100923.25;5055336;28;19995;-31
2021/06/06 07:10:30;;;;;;;3.17;1.13;;;;;;;19.76;45.87;100919.81;5056315;28;20036;-31
2021/06/06 07:12:56;;;;;;;1.67;0.80;;;;;;;19.71;45.78;100914.63;5055736;28;20037;-31
2021/06/06 07:15:22;;;;;;;2.50;1.03;;;;;;;19.70;45.82;100912.84;5055473;28;20056;-33
2021/06/06 07:17:49;;;;;;;6.55;2.25;;;;;;;19.74;45.95;100908.38;5055934;28;20021;-31
2021/06/06 07:20:18;;;;;;;3.83;1.77;;;;;;;19.82;45.90;100917.06;5056199;28;20455;-31
2021/06/06 07:22:44;;;;;;;3.63;0.63;;;;;;;19.77;45.87;100914.47;5055316;28;20140;-31
2021/06/06 07:25:11;;;;;;;2.30;0.50;;;;;;;19.84;45.69;100915.22;5056074;28;20378;-31
2021/06/06 07:27:40;;;;;;;1.17;0.90;;;;;;;19.71;46.07;100913.75;5054884;28;20028;-33
2021/06/06 07:30:08;;;;;;;15.75;1.58;;;;;;;19.75;45.82;100912.75;5055003;28;20028;-31
2021/06/06 07:32:34;;;;;;;3.70;1.08;;;;;;;19.72;45.78;100910.19;5055689;28;20086;-31
2021/06/06 07:35:02;;;;;;;10.35;1.00;;;;;;;19.67;45.96;100912.91;5055786;28;20048;-33
2021/06/06 07:37:28;;;;;;;4.03;1.13;;;;;;;19.70;45.85;100910.19;5055775;28;20028;-31
2021/06/06 07:39:54;;;;;;;1.00;0.55;;;;;;;19.77;45.63;100905.66;5055692;28;20036;-31
2021/06/06 07:42:20;;;;;;;3.53;0.90;;;;;;;19.74;45.80;100903.06;5055776;28;20028;-31
2021/06/06 07:44:47;;;;;;;8.57;1.60;;;;;;;19.64;46.10;100902.38;5055519;28;20040;-32
2021/06/06 07:47:13;;;;;;;4.90;2.03;;;;;;;19.67;45.85;100904.97;5054530;28;20517;-31
2021/06/06 07:49:39;;;;;;;12.20;2.00;;;;;;;19.67;45.84;100902.31;5055495;28;20345;-32
2021/06/06 07:52:06;;;;;;;4.22;1.67;;;;;;;19.66;45.76;100904.09;5055422;28;20028;-33
2021/06/06 07:54:33;;;;;;;3.85;1.35;;;;;;;19.66;46.05;100905.88;5055296;28;20024;-32
2021/06/06 07:56:59;;;;;;;6.35;1.10;;;;;;;19.56;46.02;100899.84;5064529;28;20395;-31
2021/06/06 07:59:26;;;;;;;12.38;1.27;;;;;;;19.65;45.86;100896.16;5094566;28;20469;-31
2021/06/06 08:01:52;;;;;;;6.28;1.50;;;;;;;19.59;45.75;100902.41;5095383;28;20047;-32
2021/06/06 08:04:18;;;;;;;1.23;1.13;;;;;;;19.62;45.76;100897.09;5095315;28;20138;-31
2021/06/06 08:06:45;;;;;;;5.20;0.93;;;;;;;19.64;45.62;100897.06;5095410;28;20043;-32
2021/06/06 08:09:11;;;;;;;1.43;0.60;;;;;;;19.60;45.83;100890.94;5095773;28;20031;-32
2021/06/06 08:11:38;;;;;;;8.70;1.15;;;;;;;19.60;45.77;100888.28;5095347;28;20024;-31
2021/06/06 08:14:04;;;;;;;0.50;0.47;;;;;;;19.57;45.71;100888.34;5095064;28;20533;-31
2021/06/06 08:16:31;;;;;;;4.30;1.23;;;;;;;19.52;45.89;100884.91;5095276;28;20184;-31
2021/06/06 08:18:57;;;;;;;7.25;0.65;;;;;;;19.56;45.85;100883.94;5080609;28;20103;-32
2021/06/06 08:21:33;;;;;;;4.45;2.15;;;;;;;19.56;45.79;100883.94;5090936;28;20024;-31
2021/06/06 08:24:00;;;;;;;2.30;0.35;;;;;;;19.46;46.13;100877.03;5074918;28;20166;-31
2021/06/06 08:26:27;;;;;;;5.82;1.00;;;;;;;19.57;45.80;100869.78;5074854;28;20021;-32
2021/06/06 08:28:53;;;;;;;5.30;1.38;;;;;;;19.49;45.93;100878.78;5074837;28;20458;-31
2021/06/06 08:31:22;;;;;;;10.52;1.80;;;;;;;19.54;45.79;100877.78;5074948;28;20024;-31
2021/06/06 08:33:49;;;;;;;0.82;0.35;;;;;;;19.43;45.97;100870.06;5074449;28;20095;-32
2021/06/06 08:36:27;;;;;;;2.00;1.40;;;;;;;19.48;45.88;100867.31;5075008;28;20104;-34
2021/06/06 08:38:53;;;;;;;22.67;2.35;;;;;;;19.48;45.77;100864.66;5074946;28;20093;-33
2021/06/06 08:41:22;;;;;;;14.77;2.05;;;;;;;19.45;45.74;100848.81;5074778;28;20036;-32
2021/06/06 08:43:51;;;;;;;1.60;1.17;;;;;;;19.39;46.13;100854.25;5073493;28;20485;-32
2021/06/06 08:46:18;;;;;;;1.35;0.82;;;;;;;19.46;45.80;100855.84;5073750;28;20024;-31
2021/06/06 08:48:45;;;;;;;1.88;1.73;;;;;;;19.45;45.91;100854.13;5074488;28;20074;-31
2021/06/06 08:51:35;;;;;;;2.63;0.55;;;;;;;19.40;46.05;100858.63;5074695;28;20089;-31
2021/06/06 08:54:16;;;;;;;7.32;1.55;;;;;;;19.38;45.96;100842.78;5059704;28;20366;-31
2021/06/06 08:56:42;;;;;;;5.50;3.10;;;;;;;19.33;46.03;100827.88;5074776;28;20035;-30
2021/06/06 08:59:46;;;;;;;10.95;1.35;;;;;;;19.33;45.92;100843.78;5073811;28;20021;-32
2021/06/06 09:02:26;;;;;;;17.15;2.78;;;;;;;19.35;45.89;100840.16;5062526;28;20382;-31
2021/06/06 09:04:53;;;;;;;3.03;0.70;;;;;;;19.40;45.86;100838.31;5074401;28;20025;-32
2021/06/06 09:07:38;;;;;;;3.28;1.33;;;;;;;19.33;45.87;100827.88;5074423;28;20017;-30
2021/06/06 09:10:28;;;;;;;1.50;0.98;;;;;;;19.29;46.00;100826.19;5072832;28;20040;-31
2021/06/06 09:12:56;;;;;;;9.50;1.27;;;;;;;19.31;46.15;100832.31;5076650;28;20032;-31
2021/06/06 09:15:23;;;;;;;4.43;0.85;;;;;;;19.37;45.75;100834.84;5078270;28;20021;-30
2021/06/06 09:17:50;;;;;;;;;;;;;;;19.32;45.89;100829.66;5078761;28;20032;-31
2021/06/06 09:20:36;;;;;;;4.60;1.00;;;;;;;19.35;45.76;100818.97;5078310;28;20304;-33
2021/06/06 09:23:10;;;;;;;9.10;1.88;;;;;;;19.40;45.76;100816.25;5076452;28;20455;-31
2021/06/06 09:25:38;;;;;;;3.70;1.10;;;;;;;19.39;45.63;100819.81;5059262;28;20405;-32
2021/06/06 09:28:11;;;;;;;7.50;1.77;;;;;;;19.32;45.75;100820.81;5058070;28;20043;-31
2021/06/06 09:30:38;;;;;;;2.13;0.70;;;;;;;19.23;45.89;100816.56;5059469;28;20088;-33
2021/06/06 09:33:10;;;;;;;6.10;1.17;;;;;;;19.26;46.12;100813.84;5077967;28;20056;-31
2021/06/06 09:35:49;;;;;;;5.35;1.60;;;;;;;19.38;45.64;100818.06;5077112;28;20020;-32
2021/06/06 09:38:30;;;;;;;5.25;1.08;;;;;;;19.28;45.65;100812.06;5077988;28;20096;-31
2021/06/06 09:41:34;;;;;;;1.95;1.17;;;;;;;19.21;45.97;100813.06;5078142;28;20062;-31
2021/06/06 09:44:06;;;;;;;5.68;1.35;;;;;;;19.30;45.74;100812.03;5074183;28;20466;-33
2021/06/06 09:46:41;;;;;;;2.35;1.30;;;;;;;19.27;45.93;100809.44;5077684;28;20044;-31
2021/06/06 09:49:32;;;;;;;5.57;1.48;;;;;;;19.25;45.73;100805.94;5077822;28;20047;-30
2021/06/06 09:52:28;;;;;;;1.95;1.38;;;;;;;19.18;45.94;100802.56;5074939;28;20036;-31
2021/06/06 09:54:56;;;;;;;2.15;1.10;;;;;;;19.23;45.72;100805.09;5075239;28;20044;-30
2021/06/06 09:57:35;;;;;;;2.08;0.90;;;;;;;19.17;46.00;100806.94;5076801;28;20055;-30
2021/06/06 10:00:12;;;;;;;1.27;0.63;;;;;;;19.22;45.79;100806.00;5077486;28;20036;-31
2021/06/06 10:02:45;;;;;;;1.65;0.80;;;;;;;19.22;45.79;100800.69;5077032;28;20017;-31
2021/06/06 10:05:32;;;;;;;3.33;1.75;;;;;;;19.12;45.78;100787.63;5077199;28;20032;-31
2021/06/06 10:07:59;;;;;;;6.95;2.40;;;;;;;19.17;46.09;100801.66;5076193;28;20356;-30
2021/06/06 10:10:27;;;;;;;;;;;;;;;19.16;45.93;100793.75;5078115;28;20021;-31
2021/06/06 10:12:53;;;;;;;3.22;1.13;;;;;;;19.15;45.75;100790.22;5077423;28;19981;-31
2021/06/06 10:15:35;;;;;;;3.85;1.40;;;;;;;19.20;45.90;100792.78;5076475;28;20043;-32
2021/06/06 10:18:11;;;;;;;2.05;0.28;;;;;;;19.13;45.76;100780.56;5077109;28;20028;-33
2021/06/06 10:20:42;;;;;;;10.45;3.88;;;;;;;19.20;45.67;100782.19;5061187;28;20031;-31
2021/06/06 10:23:20;;;;;;;1.00;0.45;;;;;;;19.18;45.82;100774.28;5076155;28;20016;-30
2021/06/06 10:25:55;;;;;;;3.80;1.67;;;;;;;19.10;45.92;100778.84;5076977;28;20031;-30
2021/06/06 10:28:33;;;;;;;5.75;0.65;;;;;;;19.10;45.92;100778.84;5077052;28;20028;-32
2021/06/06 10:31:07;;;;;;;3.35;1.58;;;;;;;19.05;46.00;100780.72;5077192;28;20357;-31
2021/06/06 10:33:50;;;;;;;11.02;1.85;;;;;;;19.05;46.12;100790.44;5076281;28;20025;-32
2021/06/06 10:36:18;;;;;;;0.98;0.85;;;;;;;19.03;46.09;100785.16;5075827;28;20170;-31
2021/06/06 10:38:46;;;;;;;7.22;1.17;;;;;;;19.08;45.96;100788.59;5076971;28;20108;-32
2021/06/06 10:41:14;;;;;;;15.27;1.23;;;;;;;19.13;45.84;100783.19;5071208;28;20120;-31
2021/06/06 10:43:55;;;;;;;9.05;1.90;;;;;;;19.11;45.91;100795.63;5054441;28;20024;-31
2021/06/06 10:46:39;;;;;;;11.88;4.65;;;;;;;19.12;45.90;100795.56;5056548;28;20108;-33
2021/06/06 10:49:25;;;;;;;11.20;1.52;;;;;;;19.07;45.83;100788.63;5055451;28;20362;-31
2021/06/06 10:52:05;;;;;;;4.70;1.13;;;;;;;19.07;45.91;100783.31;5055650;28;20374;-33
2021/06/06 10:54:38;;;;;;;16.33;1.98;;;;;;;19.01;46.26;100788.75;5057213;28;20044;-30
2021/06/06 10:57:25;;;;;;;2.65;1.17;;;;;;;18.98;46.09;100786.13;5056605;28;20506;-31
2021/06/06 11:00:01;;;;;;;2.67;0.93;;;;;;;19.08;45.72;100788.59;5056261;28;20039;-32
2021/06/06 11:02:40;;;;;;;6.75;1.80;;;;;;;18.98;46.03;100792.31;5055711;28;20021;-31
2021/06/06 11:05:30;;;;;;;11.77;1.40;;;;;;;18.92;46.32;100798.59;5071976;28;20099;-32
2021/06/06 11:07:56;;;;;;;3.30;0.82;;;;;;;19.00;46.13;100803.75;5045291;28;20107;-31
2021/06/06 11:10:26;;;;;;;9.10;1.55;;;;;;;19.05;45.87;100809.84;5056400;28;20021;-31
2021/06/06 11:12:54;;;;;;;4.68;0.35;;;;;;;19.05;45.75;100804.53;5056186;28;20041;-30
2021/06/06 11:15:35;;;;;;;1.42;0.55;;;;;;;19.02;45.95;100814.31;5056363;28;20020;-30
2021/06/06 11:18:21;;;;;;;7.10;1.30;;;;;;;18.99;45.95;100811.69;5054925;28;20336;-31
2021/06/06 11:21:05;;;;;;;2.35;1.25;;;;;;;19.03;45.89;100806.31;5072122;28;20024;-31
2021/06/06 11:23:46;;;;;;;6.55;1.63;;;;;;;18.88;46.27;100807.47;5056041;28;20025;-31
2021/06/06 11:26:23;;;;;;;8.40;1.95;;;;;;;18.96;45.97;100810.00;5055828;28;20451;-31
2021/06/06 11:28:52;;;;;;;10.63;2.38;;;;;;;18.90;46.25;100808.34;5056328;28;20094;-30
2021/06/06 11:31:28;;;;;;;0.95;0.20;;;;;;;18.86;46.17;100808.41;5071620;28;20482;-30
2021/06/06 11:34:18;;;;;;;4.18;1.10;;;;;;;18.80;46.45;100814.69;5055717;28;20025;-32
2021/06/06 11:36:45;;;;;;;6.88;2.28;;;;;;;18.95;46.03;100816.19;5055403;28;20025;-31
2021/06/06 11:39:18;;;;;;;10.43;1.27;;;;;;;18.95;45.93;100816.19;5055802;28;20021;-31
2021/06/06 11:41:47;;;;;;;14.20;4.40;;;;;;;18.95;45.98;100810.91;5054926;28;20035;-33